sensor_id;sensor_type;location;lat;lon;timestamp;temperature;humidity
1175;DHT22;576;48.418;10.074;2023-07-20T00:01:19;29.60;54.20
1175;DHT22;576;48.418;10.074;2023-07-20T00:03:48;29.60;54.40
1175;DHT22;576;48.418;10.074;2023-07-20T00:06:22;29.60;54.50
1175;DHT22;576;48.418;10.074;2023-07-20T00:08:50;29.60;54.40
1175;DHT22;576;48.418;10.074;2023-07-20T00:11:19;29.50;54.40
1175;DHT22;576;48.418;10.074;2023-07-20T00:13:47;29.50;54.50
1175;DHT22;576;48.418;10.074;2023-07-20T00:16:17;29.50;54.60
1175;DHT22;576;48.418;10.074;2023-07-20T00:18:45;29.50;54.40
1175;DHT22;576;48.418;10.074;2023-07-20T00:21:13;29.50;54.50
1175;DHT22;576;48.418;10.074;2023-07-20T00:23:41;29.50;54.20
1175;DHT22;576;48.418;10.074;2023-07-20T00:26:09;29.50;54.30
1175;DHT22;576;48.418;10.074;2023-07-20T00:28:38;29.50;54.50
1175;DHT22;576;48.418;10.074;2023-07-20T00:31:07;29.50;54.30
1175;DHT22;576;48.418;10.074;2023-07-20T00:33:37;29.50;54.30
1175;DHT22;576;48.418;10.074;2023-07-20T00:36:06;29.50;54.30
1175;DHT22;576;48.418;10.074;2023-07-20T00:38:34;29.50;54.30
1175;DHT22;576;48.418;10.074;2023-07-20T00:41:03;29.50;54.40
1175;DHT22;576;48.418;10.074;2023-07-20T00:43:31;29.50;54.30
1175;DHT22;576;48.418;10.074;2023-07-20T00:45:59;29.40;54.30
1175;DHT22;576;48.418;10.074;2023-07-20T00:48:30;29.40;54.40
1175;DHT22;576;48.418;10.074;2023-07-20T00:51:00;29.40;54.30
1175;DHT22;576;48.418;10.074;2023-07-20T00:53:30;29.40;54.30
1175;DHT22;576;48.418;10.074;2023-07-20T00:56:00;29.40;54.30
1175;DHT22;576;48.418;10.074;2023-07-20T00:58:28;29.40;54.50
1175;DHT22;576;48.418;10.074;2023-07-20T01:00:57;29.40;54.40
1175;DHT22;576;48.418;10.074;2023-07-20T01:03:25;29.40;54.50
1175;DHT22;576;48.418;10.074;2023-07-20T01:05:59;29.40;54.30
1175;DHT22;576;48.418;10.074;2023-07-20T01:08:35;29.40;54.40
1175;DHT22;576;48.418;10.074;2023-07-20T01:11:11;29.40;54.30
1175;DHT22;576;48.418;10.074;2023-07-20T01:13:41;29.30;54.30
1175;DHT22;576;48.418;10.074;2023-07-20T01:16:11;29.40;54.30
1175;DHT22;576;48.418;10.074;2023-07-20T01:18:39;29.30;54.40
1175;DHT22;576;48.418;10.074;2023-07-20T01:21:16;29.30;54.40
1175;DHT22;576;48.418;10.074;2023-07-20T01:24:19;29.30;54.30
1175;DHT22;576;48.418;10.074;2023-07-20T01:27:06;29.30;54.40
1175;DHT22;576;48.418;10.074;2023-07-20T01:30:00;29.30;54.30
1175;DHT22;576;48.418;10.074;2023-07-20T01:32:33;29.30;54.30
1175;DHT22;576;48.418;10.074;2023-07-20T01:35:02;29.30;54.30
1175;DHT22;576;48.418;10.074;2023-07-20T01:37:30;29.20;54.30
1175;DHT22;576;48.418;10.074;2023-07-20T01:40:00;29.20;54.40
1175;DHT22;576;48.418;10.074;2023-07-20T01:42:28;29.20;54.50
1175;DHT22;576;48.418;10.074;2023-07-20T01:44:57;29.20;54.40
1175;DHT22;576;48.418;10.074;2023-07-20T01:47:25;29.20;54.50
1175;DHT22;576;48.418;10.074;2023-07-20T01:49:54;29.20;54.50
1175;DHT22;576;48.418;10.074;2023-07-20T01:52:23;29.20;54.60
1175;DHT22;576;48.418;10.074;2023-07-20T01:54:51;29.20;54.50
1175;DHT22;576;48.418;10.074;2023-07-20T01:57:19;29.10;54.60
1175;DHT22;576;48.418;10.074;2023-07-20T01:59:47;29.10;54.60
1175;DHT22;576;48.418;10.074;2023-07-20T02:02:15;29.10;54.50
1175;DHT22;576;48.418;10.074;2023-07-20T02:04:45;29.10;54.40
1175;DHT22;576;48.418;10.074;2023-07-20T02:07:15;29.10;54.60
1175;DHT22;576;48.418;10.074;2023-07-20T02:09:43;29.10;54.20
1175;DHT22;576;48.418;10.074;2023-07-20T02:12:11;29.10;54.40
1175;DHT22;576;48.418;10.074;2023-07-20T02:14:40;29.10;54.50
1175;DHT22;576;48.418;10.074;2023-07-20T02:17:08;29.10;54.50
1175;DHT22;576;48.418;10.074;2023-07-20T02:19:37;29.10;54.50
1175;DHT22;576;48.418;10.074;2023-07-20T02:22:06;29.10;54.20
1175;DHT22;576;48.418;10.074;2023-07-20T02:24:35;29.10;54.50
1175;DHT22;576;48.418;10.074;2023-07-20T02:27:04;29.00;54.30
1175;DHT22;576;48.418;10.074;2023-07-20T02:29:33;29.00;54.20
1175;DHT22;576;48.418;10.074;2023-07-20T02:32:03;29.00;54.30
1175;DHT22;576;48.418;10.074;2023-07-20T02:34:31;29.00;54.50
1175;DHT22;576;48.418;10.074;2023-07-20T02:37:00;29.00;54.50
1175;DHT22;576;48.418;10.074;2023-07-20T02:39:28;29.00;54.30
1175;DHT22;576;48.418;10.074;2023-07-20T02:41:57;29.00;54.10
1175;DHT22;576;48.418;10.074;2023-07-20T02:44:26;28.90;54.30
1175;DHT22;576;48.418;10.074;2023-07-20T02:46:54;28.90;54.20
1175;DHT22;576;48.418;10.074;2023-07-20T02:49:22;28.90;54.30
1175;DHT22;576;48.418;10.074;2023-07-20T02:51:50;28.90;54.40
1175;DHT22;576;48.418;10.074;2023-07-20T02:54:19;28.90;54.30
1175;DHT22;576;48.418;10.074;2023-07-20T02:56:47;28.90;54.20
1175;DHT22;576;48.418;10.074;2023-07-20T02:59:17;28.90;54.40
1175;DHT22;576;48.418;10.074;2023-07-20T03:01:45;28.90;54.40
1175;DHT22;576;48.418;10.074;2023-07-20T03:04:13;28.90;54.20
1175;DHT22;576;48.418;10.074;2023-07-20T03:06:43;28.80;54.30
1175;DHT22;576;48.418;10.074;2023-07-20T03:09:11;28.80;54.40
1175;DHT22;576;48.418;10.074;2023-07-20T03:11:39;28.80;54.20
1175;DHT22;576;48.418;10.074;2023-07-20T03:14:07;28.80;54.00
1175;DHT22;576;48.418;10.074;2023-07-20T03:16:40;28.80;54.20
1175;DHT22;576;48.418;10.074;2023-07-20T03:19:08;28.70;54.00
1175;DHT22;576;48.418;10.074;2023-07-20T03:21:36;28.70;54.10
1175;DHT22;576;48.418;10.074;2023-07-20T03:24:07;28.70;54.10
1175;DHT22;576;48.418;10.074;2023-07-20T03:26:36;28.70;54.00
1175;DHT22;576;48.418;10.074;2023-07-20T03:29:06;28.70;53.90
1175;DHT22;576;48.418;10.074;2023-07-20T03:31:35;28.70;54.10
1175;DHT22;576;48.418;10.074;2023-07-20T03:34:05;28.70;53.90
1175;DHT22;576;48.418;10.074;2023-07-20T03:36:33;28.70;54.10
1175;DHT22;576;48.418;10.074;2023-07-20T03:39:01;28.60;54.00
1175;DHT22;576;48.418;10.074;2023-07-20T03:41:29;28.70;54.00
1175;DHT22;576;48.418;10.074;2023-07-20T03:43:58;28.60;54.00
1175;DHT22;576;48.418;10.074;2023-07-20T03:46:26;28.60;54.30
1175;DHT22;576;48.418;10.074;2023-07-20T03:48:54;28.60;54.00
1175;DHT22;576;48.418;10.074;2023-07-20T03:51:24;28.60;54.30
1175;DHT22;576;48.418;10.074;2023-07-20T03:53:52;28.60;54.20
1175;DHT22;576;48.418;10.074;2023-07-20T03:56:20;28.60;54.40
1175;DHT22;576;48.418;10.074;2023-07-20T03:58:49;28.60;54.40
1175;DHT22;576;48.418;10.074;2023-07-20T04:01:17;28.60;54.50
1175;DHT22;576;48.418;10.074;2023-07-20T04:03:45;28.60;54.50
1175;DHT22;576;48.418;10.074;2023-07-20T04:06:16;28.60;54.50
1175;DHT22;576;48.418;10.074;2023-07-20T04:08:46;28.60;54.60
1175;DHT22;576;48.418;10.074;2023-07-20T04:11:15;28.60;54.60
1175;DHT22;576;48.418;10.074;2023-07-20T04:13:43;28.60;54.70
1175;DHT22;576;48.418;10.074;2023-07-20T04:16:11;28.60;54.50
1175;DHT22;576;48.418;10.074;2023-07-20T04:18:39;28.60;54.80
1175;DHT22;576;48.418;10.074;2023-07-20T04:21:08;28.60;54.80
1175;DHT22;576;48.418;10.074;2023-07-20T04:23:36;28.60;54.80
1175;DHT22;576;48.418;10.074;2023-07-20T04:26:06;28.60;54.80
1175;DHT22;576;48.418;10.074;2023-07-20T04:28:34;28.60;54.90
1175;DHT22;576;48.418;10.074;2023-07-20T04:31:12;28.60;54.90
1175;DHT22;576;48.418;10.074;2023-07-20T04:33:42;28.60;54.80
1175;DHT22;576;48.418;10.074;2023-07-20T04:36:10;28.60;54.90
1175;DHT22;576;48.418;10.074;2023-07-20T04:38:40;28.60;55.00
1175;DHT22;576;48.418;10.074;2023-07-20T04:41:21;28.60;55.10
1175;DHT22;576;48.418;10.074;2023-07-20T04:43:51;28.60;55.00
1175;DHT22;576;48.418;10.074;2023-07-20T04:46:25;28.60;55.10
1175;DHT22;576;48.418;10.074;2023-07-20T04:48:54;28.60;55.10
1175;DHT22;576;48.418;10.074;2023-07-20T04:51:28;28.60;55.20
1175;DHT22;576;48.418;10.074;2023-07-20T04:53:57;28.60;55.20
1175;DHT22;576;48.418;10.074;2023-07-20T04:56:31;28.60;55.00
1175;DHT22;576;48.418;10.074;2023-07-20T04:59:01;28.60;55.00
1175;DHT22;576;48.418;10.074;2023-07-20T05:01:29;28.60;55.20
1175;DHT22;576;48.418;10.074;2023-07-20T05:03:58;28.60;55.00
1175;DHT22;576;48.418;10.074;2023-07-20T05:06:27;28.60;55.10
1175;DHT22;576;48.418;10.074;2023-07-20T05:08:56;28.60;55.20
1175;DHT22;576;48.418;10.074;2023-07-20T05:11:24;28.60;55.10
1175;DHT22;576;48.418;10.074;2023-07-20T05:13:54;28.60;55.10
1175;DHT22;576;48.418;10.074;2023-07-20T05:16:22;28.60;55.20
1175;DHT22;576;48.418;10.074;2023-07-20T05:18:51;28.60;55.10
1175;DHT22;576;48.418;10.074;2023-07-20T05:21:20;28.60;55.10
1175;DHT22;576;48.418;10.074;2023-07-20T05:23:48;28.60;55.10
1175;DHT22;576;48.418;10.074;2023-07-20T05:26:16;28.60;55.10
1175;DHT22;576;48.418;10.074;2023-07-20T05:28:44;28.60;55.20
1175;DHT22;576;48.418;10.074;2023-07-20T05:31:14;28.60;55.20
1175;DHT22;576;48.418;10.074;2023-07-20T05:33:42;28.60;55.40
1175;DHT22;576;48.418;10.074;2023-07-20T05:36:10;28.60;55.30
1175;DHT22;576;48.418;10.074;2023-07-20T05:38:38;28.60;55.30
1175;DHT22;576;48.418;10.074;2023-07-20T05:41:06;28.60;55.30
1175;DHT22;576;48.418;10.074;2023-07-20T05:43:37;28.60;55.30
1175;DHT22;576;48.418;10.074;2023-07-20T05:46:05;28.60;55.30
1175;DHT22;576;48.418;10.074;2023-07-20T05:48:35;28.60;55.40
1175;DHT22;576;48.418;10.074;2023-07-20T05:51:03;28.60;55.40
1175;DHT22;576;48.418;10.074;2023-07-20T05:53:31;28.60;55.40
1175;DHT22;576;48.418;10.074;2023-07-20T05:55:59;28.60;55.30
1175;DHT22;576;48.418;10.074;2023-07-20T05:58:28;28.60;55.30
1175;DHT22;576;48.418;10.074;2023-07-20T06:00:56;28.60;55.30
1175;DHT22;576;48.418;10.074;2023-07-20T06:03:24;28.60;55.30
1175;DHT22;576;48.418;10.074;2023-07-20T06:05:58;28.60;55.40
1175;DHT22;576;48.418;10.074;2023-07-20T06:08:28;28.60;55.30
1175;DHT22;576;48.418;10.074;2023-07-20T06:10:56;28.60;55.30
1175;DHT22;576;48.418;10.074;2023-07-20T06:13:24;28.60;55.40
1175;DHT22;576;48.418;10.074;2023-07-20T06:15:53;28.60;55.30
1175;DHT22;576;48.418;10.074;2023-07-20T06:18:23;28.60;55.40
1175;DHT22;576;48.418;10.074;2023-07-20T06:20:51;28.70;55.40
1175;DHT22;576;48.418;10.074;2023-07-20T06:23:21;28.70;55.50
1175;DHT22;576;48.418;10.074;2023-07-20T06:25:49;28.70;55.50
1175;DHT22;576;48.418;10.074;2023-07-20T06:28:17;28.70;55.50
1175;DHT22;576;48.418;10.074;2023-07-20T06:30:46;28.70;55.50
1175;DHT22;576;48.418;10.074;2023-07-20T06:33:14;28.70;55.40
1175;DHT22;576;48.418;10.074;2023-07-20T06:35:42;28.70;55.40
1175;DHT22;576;48.418;10.074;2023-07-20T06:38:10;28.70;55.40
1175;DHT22;576;48.418;10.074;2023-07-20T06:40:48;28.70;55.40
1175;DHT22;576;48.418;10.074;2023-07-20T06:43:17;28.70;55.40
1175;DHT22;576;48.418;10.074;2023-07-20T06:45:51;28.70;55.40
1175;DHT22;576;48.418;10.074;2023-07-20T06:48:21;28.70;55.30
1175;DHT22;576;48.418;10.074;2023-07-20T06:50:49;28.70;55.50
1175;DHT22;576;48.418;10.074;2023-07-20T06:53:18;28.70;55.50
1175;DHT22;576;48.418;10.074;2023-07-20T06:55:47;28.80;55.50
1175;DHT22;576;48.418;10.074;2023-07-20T06:58:16;28.70;55.40
1175;DHT22;576;48.418;10.074;2023-07-20T07:00:44;28.70;55.20
1175;DHT22;576;48.418;10.074;2023-07-20T07:03:13;28.80;55.20
1175;DHT22;576;48.418;10.074;2023-07-20T07:05:41;28.80;55.30
1175;DHT22;576;48.418;10.074;2023-07-20T07:08:10;28.80;55.20
1175;DHT22;576;48.418;10.074;2023-07-20T07:10:38;28.80;55.20
1175;DHT22;576;48.418;10.074;2023-07-20T07:13:07;28.80;55.20
1175;DHT22;576;48.418;10.074;2023-07-20T07:15:36;28.90;55.10
1175;DHT22;576;48.418;10.074;2023-07-20T07:18:05;28.90;55.10
1175;DHT22;576;48.418;10.074;2023-07-20T07:20:33;28.90;55.20
1175;DHT22;576;48.418;10.074;2023-07-20T07:23:01;28.90;55.20
1175;DHT22;576;48.418;10.074;2023-07-20T07:25:29;28.90;55.10
1175;DHT22;576;48.418;10.074;2023-07-20T07:27:59;28.90;55.20
1175;DHT22;576;48.418;10.074;2023-07-20T07:30:28;28.90;55.10
1175;DHT22;576;48.418;10.074;2023-07-20T07:33:00;28.90;55.20
1175;DHT22;576;48.418;10.074;2023-07-20T07:35:28;28.90;55.20
1175;DHT22;576;48.418;10.074;2023-07-20T07:37:57;28.90;55.20
1175;DHT22;576;48.418;10.074;2023-07-20T07:40:30;29.00;55.10
1175;DHT22;576;48.418;10.074;2023-07-20T07:42:58;29.00;55.00
1175;DHT22;576;48.418;10.074;2023-07-20T07:45:27;29.00;55.10
1175;DHT22;576;48.418;10.074;2023-07-20T07:47:56;29.00;55.00
1175;DHT22;576;48.418;10.074;2023-07-20T07:50:24;29.00;55.00
1175;DHT22;576;48.418;10.074;2023-07-20T07:52:54;29.00;54.90
1175;DHT22;576;48.418;10.074;2023-07-20T07:55:22;29.00;54.90
1175;DHT22;576;48.418;10.074;2023-07-20T07:57:50;29.00;54.90
1175;DHT22;576;48.418;10.074;2023-07-20T08:00:19;29.10;54.90
1175;DHT22;576;48.418;10.074;2023-07-20T08:02:50;29.10;54.90
1175;DHT22;576;48.418;10.074;2023-07-20T08:05:19;29.10;54.90
1175;DHT22;576;48.418;10.074;2023-07-20T08:07:47;29.10;55.00
1175;DHT22;576;48.418;10.074;2023-07-20T08:10:15;29.10;54.90
1175;DHT22;576;48.418;10.074;2023-07-20T08:12:43;29.10;55.00
1175;DHT22;576;48.418;10.074;2023-07-20T08:15:12;29.10;54.90
1175;DHT22;576;48.418;10.074;2023-07-20T08:17:41;29.10;54.90
1175;DHT22;576;48.418;10.074;2023-07-20T08:20:13;29.10;54.90
1175;DHT22;576;48.418;10.074;2023-07-20T08:22:43;29.10;54.90
1175;DHT22;576;48.418;10.074;2023-07-20T08:25:14;29.10;54.90
1175;DHT22;576;48.418;10.074;2023-07-20T08:27:42;29.10;55.00
1175;DHT22;576;48.418;10.074;2023-07-20T08:30:13;29.10;55.00
1175;DHT22;576;48.418;10.074;2023-07-20T08:32:41;29.10;54.90
1175;DHT22;576;48.418;10.074;2023-07-20T08:35:10;29.10;54.90
1175;DHT22;576;48.418;10.074;2023-07-20T08:37:43;29.10;55.00
1175;DHT22;576;48.418;10.074;2023-07-20T08:40:12;29.10;54.90
1175;DHT22;576;48.418;10.074;2023-07-20T08:42:42;29.20;54.90
1175;DHT22;576;48.418;10.074;2023-07-20T08:45:13;29.10;54.90
1175;DHT22;576;48.418;10.074;2023-07-20T08:47:42;29.20;54.90
1175;DHT22;576;48.418;10.074;2023-07-20T08:50:12;29.20;54.90
1175;DHT22;576;48.418;10.074;2023-07-20T08:52:43;29.20;55.00
1175;DHT22;576;48.418;10.074;2023-07-20T08:55:11;29.20;55.00
1175;DHT22;576;48.418;10.074;2023-07-20T08:57:41;29.20;55.00
1175;DHT22;576;48.418;10.074;2023-07-20T09:00:13;29.20;54.90
1175;DHT22;576;48.418;10.074;2023-07-20T09:02:45;29.20;54.90
1175;DHT22;576;48.418;10.074;2023-07-20T09:05:13;29.20;54.90
1175;DHT22;576;48.418;10.074;2023-07-20T09:07:43;29.20;54.90
1175;DHT22;576;48.418;10.074;2023-07-20T09:10:11;29.20;54.90
1175;DHT22;576;48.418;10.074;2023-07-20T09:12:41;29.20;54.90
1175;DHT22;576;48.418;10.074;2023-07-20T09:15:11;29.20;54.90
1175;DHT22;576;48.418;10.074;2023-07-20T09:17:39;29.20;54.90
1175;DHT22;576;48.418;10.074;2023-07-20T09:20:08;29.30;54.90
1175;DHT22;576;48.418;10.074;2023-07-20T09:22:38;29.30;54.80
1175;DHT22;576;48.418;10.074;2023-07-20T09:25:11;29.30;54.70
1175;DHT22;576;48.418;10.074;2023-07-20T09:27:41;29.30;54.70
1175;DHT22;576;48.418;10.074;2023-07-20T09:30:10;29.30;54.80
1175;DHT22;576;48.418;10.074;2023-07-20T09:32:45;29.30;54.80
1175;DHT22;576;48.418;10.074;2023-07-20T09:35:17;29.40;54.80
1175;DHT22;576;48.418;10.074;2023-07-20T09:37:50;29.40;55.00
1175;DHT22;576;48.418;10.074;2023-07-20T09:40:41;29.40;54.90
1175;DHT22;576;48.418;10.074;2023-07-20T09:43:16;29.50;55.00
1175;DHT22;576;48.418;10.074;2023-07-20T09:45:47;29.50;55.00
1175;DHT22;576;48.418;10.074;2023-07-20T09:48:18;29.50;55.00
1175;DHT22;576;48.418;10.074;2023-07-20T09:50:55;29.50;55.00
1175;DHT22;576;48.418;10.074;2023-07-20T09:53:25;29.60;54.90
1175;DHT22;576;48.418;10.074;2023-07-20T09:55:55;29.60;55.00
1175;DHT22;576;48.418;10.074;2023-07-20T09:58:26;29.60;55.00
1175;DHT22;576;48.418;10.074;2023-07-20T10:00:57;29.60;55.00
1175;DHT22;576;48.418;10.074;2023-07-20T10:03:28;29.60;55.00
1175;DHT22;576;48.418;10.074;2023-07-20T10:06:05;29.60;55.00
1175;DHT22;576;48.418;10.074;2023-07-20T10:08:38;29.60;55.10
1175;DHT22;576;48.418;10.074;2023-07-20T10:11:12;29.60;55.10
1175;DHT22;576;48.418;10.074;2023-07-20T10:13:43;29.60;55.10
1175;DHT22;576;48.418;10.074;2023-07-20T10:16:17;29.60;55.10
1175;DHT22;576;48.418;10.074;2023-07-20T10:18:51;29.60;55.20
1175;DHT22;576;48.418;10.074;2023-07-20T10:21:23;29.70;55.10
1175;DHT22;576;48.418;10.074;2023-07-20T10:23:55;29.60;55.10
1175;DHT22;576;48.418;10.074;2023-07-20T10:26:26;29.70;55.10
1175;DHT22;576;48.418;10.074;2023-07-20T10:28:54;29.70;55.10
1175;DHT22;576;48.418;10.074;2023-07-20T10:31:24;29.70;55.10
1175;DHT22;576;48.418;10.074;2023-07-20T10:33:53;29.70;55.10
1175;DHT22;576;48.418;10.074;2023-07-20T10:36:24;29.70;55.10
1175;DHT22;576;48.418;10.074;2023-07-20T10:38:58;29.70;55.10
1175;DHT22;576;48.418;10.074;2023-07-20T10:41:33;29.70;55.10
1175;DHT22;576;48.418;10.074;2023-07-20T10:44:02;29.70;55.00
1175;DHT22;576;48.418;10.074;2023-07-20T10:46:45;29.70;54.80
1175;DHT22;576;48.418;10.074;2023-07-20T10:49:14;29.70;54.50
1175;DHT22;576;48.418;10.074;2023-07-20T10:51:44;29.70;54.30
1175;DHT22;576;48.418;10.074;2023-07-20T10:54:46;29.70;54.40
1175;DHT22;576;48.418;10.074;2023-07-20T10:57:27;29.60;54.30
1175;DHT22;576;48.418;10.074;2023-07-20T11:00:08;29.60;54.30
1175;DHT22;576;48.418;10.074;2023-07-20T11:02:46;29.60;54.20
1175;DHT22;576;48.418;10.074;2023-07-20T11:05:32;29.50;54.10
1175;DHT22;576;48.418;10.074;2023-07-20T11:08:04;29.50;54.20
1175;DHT22;576;48.418;10.074;2023-07-20T11:10:32;29.50;54.30
1175;DHT22;576;48.418;10.074;2023-07-20T11:13:18;29.50;54.30
1175;DHT22;576;48.418;10.074;2023-07-20T11:15:47;29.50;54.30
1175;DHT22;576;48.418;10.074;2023-07-20T11:18:15;29.50;54.40
1175;DHT22;576;48.418;10.074;2023-07-20T11:20:50;29.50;54.40
1175;DHT22;576;48.418;10.074;2023-07-20T11:23:20;29.50;54.40
1175;DHT22;576;48.418;10.074;2023-07-20T11:25:50;29.50;54.50
1175;DHT22;576;48.418;10.074;2023-07-20T11:28:20;29.50;54.50
1175;DHT22;576;48.418;10.074;2023-07-20T11:30:52;29.50;54.60
1175;DHT22;576;48.418;10.074;2023-07-20T11:33:22;29.40;54.50
1175;DHT22;576;48.418;10.074;2023-07-20T11:35:50;29.40;54.50
1175;DHT22;576;48.418;10.074;2023-07-20T11:38:20;29.40;54.50
1175;DHT22;576;48.418;10.074;2023-07-20T11:40:48;29.40;54.60
1175;DHT22;576;48.418;10.074;2023-07-20T11:43:19;29.40;54.70
1175;DHT22;576;48.418;10.074;2023-07-20T11:45:50;29.40;54.70
1175;DHT22;576;48.418;10.074;2023-07-20T11:48:18;29.40;54.80
1175;DHT22;576;48.418;10.074;2023-07-20T11:50:46;29.50;54.80
1175;DHT22;576;48.418;10.074;2023-07-20T11:53:15;29.50;54.80
1175;DHT22;576;48.418;10.074;2023-07-20T11:55:44;29.60;54.70
1175;DHT22;576;48.418;10.074;2023-07-20T11:58:13;29.60;54.70
1175;DHT22;576;48.418;10.074;2023-07-20T12:00:45;29.70;54.60
1175;DHT22;576;48.418;10.074;2023-07-20T12:03:14;29.80;54.60
1175;DHT22;576;48.418;10.074;2023-07-20T12:05:42;29.90;54.50
1175;DHT22;576;48.418;10.074;2023-07-20T12:08:27;29.90;54.20
1175;DHT22;576;48.418;10.074;2023-07-20T12:10:56;30.00;53.70
1175;DHT22;576;48.418;10.074;2023-07-20T12:13:27;30.00;53.40
1175;DHT22;576;48.418;10.074;2023-07-20T12:16:09;30.00;53.10
1175;DHT22;576;48.418;10.074;2023-07-20T12:18:38;30.00;52.70
1175;DHT22;576;48.418;10.074;2023-07-20T12:21:07;29.90;52.80
1175;DHT22;576;48.418;10.074;2023-07-20T12:23:37;29.90;52.40
1175;DHT22;576;48.418;10.074;2023-07-20T12:26:09;29.90;52.40
1175;DHT22;576;48.418;10.074;2023-07-20T12:28:41;29.90;52.70
1175;DHT22;576;48.418;10.074;2023-07-20T12:31:11;29.90;52.40
1175;DHT22;576;48.418;10.074;2023-07-20T12:33:40;30.00;52.30
1175;DHT22;576;48.418;10.074;2023-07-20T12:36:09;30.00;52.60
1175;DHT22;576;48.418;10.074;2023-07-20T12:38:38;30.10;52.60
1175;DHT22;576;48.418;10.074;2023-07-20T12:41:10;30.20;52.30
1175;DHT22;576;48.418;10.074;2023-07-20T12:43:39;30.30;52.20
1175;DHT22;576;48.418;10.074;2023-07-20T12:46:08;30.30;52.20
1175;DHT22;576;48.418;10.074;2023-07-20T12:48:38;30.30;52.10
1175;DHT22;576;48.418;10.074;2023-07-20T12:51:08;30.20;52.40
1175;DHT22;576;48.418;10.074;2023-07-20T12:53:37;30.20;52.40
1175;DHT22;576;48.418;10.074;2023-07-20T12:56:05;30.30;52.50
1175;DHT22;576;48.418;10.074;2023-07-20T12:58:36;30.40;52.50
1175;DHT22;576;48.418;10.074;2023-07-20T13:01:05;30.50;52.40
1175;DHT22;576;48.418;10.074;2023-07-20T13:03:33;30.50;52.30
1175;DHT22;576;48.418;10.074;2023-07-20T13:06:23;30.60;52.30
1175;DHT22;576;48.418;10.074;2023-07-20T13:08:55;30.70;52.30
1175;DHT22;576;48.418;10.074;2023-07-20T13:11:25;30.70;52.20
1175;DHT22;576;48.418;10.074;2023-07-20T13:13:53;30.70;52.20
1175;DHT22;576;48.418;10.074;2023-07-20T13:16:22;30.70;52.00
1175;DHT22;576;48.418;10.074;2023-07-20T13:18:50;30.70;52.20
1175;DHT22;576;48.418;10.074;2023-07-20T13:21:18;30.70;52.20
1175;DHT22;576;48.418;10.074;2023-07-20T13:23:52;30.60;52.20
1175;DHT22;576;48.418;10.074;2023-07-20T13:26:20;30.50;52.20
1175;DHT22;576;48.418;10.074;2023-07-20T13:28:49;30.50;52.60
1175;DHT22;576;48.418;10.074;2023-07-20T13:31:17;30.50;52.80
1175;DHT22;576;48.418;10.074;2023-07-20T13:33:45;30.50;52.80
1175;DHT22;576;48.418;10.074;2023-07-20T13:36:23;30.60;52.70
1175;DHT22;576;48.418;10.074;2023-07-20T13:38:53;30.60;52.70
1175;DHT22;576;48.418;10.074;2023-07-20T13:41:21;30.60;52.70
1175;DHT22;576;48.418;10.074;2023-07-20T13:43:50;30.60;52.90
1175;DHT22;576;48.418;10.074;2023-07-20T13:46:23;30.60;52.90
1175;DHT22;576;48.418;10.074;2023-07-20T13:48:54;30.70;53.00
1175;DHT22;576;48.418;10.074;2023-07-20T13:51:24;30.70;52.80
1175;DHT22;576;48.418;10.074;2023-07-20T13:53:56;30.70;52.90
1175;DHT22;576;48.418;10.074;2023-07-20T13:56:45;30.70;52.70
1175;DHT22;576;48.418;10.074;2023-07-20T13:59:13;30.70;52.90
1175;DHT22;576;48.418;10.074;2023-07-20T14:01:41;30.80;52.90
1175;DHT22;576;48.418;10.074;2023-07-20T14:04:09;30.80;52.90
1175;DHT22;576;48.418;10.074;2023-07-20T14:06:38;30.80;52.90
1175;DHT22;576;48.418;10.074;2023-07-20T14:09:08;30.70;52.90
1175;DHT22;576;48.418;10.074;2023-07-20T14:11:36;30.60;52.90
1175;DHT22;576;48.418;10.074;2023-07-20T14:14:07;30.60;52.90
1175;DHT22;576;48.418;10.074;2023-07-20T14:16:35;30.60;52.80
1175;DHT22;576;48.418;10.074;2023-07-20T14:19:04;30.50;53.00
1175;DHT22;576;48.418;10.074;2023-07-20T14:21:32;30.60;52.80
1175;DHT22;576;48.418;10.074;2023-07-20T14:24:01;30.60;52.80
1175;DHT22;576;48.418;10.074;2023-07-20T14:26:30;30.60;52.90
1175;DHT22;576;48.418;10.074;2023-07-20T14:29:00;30.60;52.90
1175;DHT22;576;48.418;10.074;2023-07-20T14:31:28;30.60;52.80
1175;DHT22;576;48.418;10.074;2023-07-20T14:33:58;30.50;52.90
1175;DHT22;576;48.418;10.074;2023-07-20T14:36:26;30.50;52.90
1175;DHT22;576;48.418;10.074;2023-07-20T14:38:55;30.40;52.90
1175;DHT22;576;48.418;10.074;2023-07-20T14:41:25;30.40;52.90
1175;DHT22;576;48.418;10.074;2023-07-20T14:43:54;30.40;53.10
1175;DHT22;576;48.418;10.074;2023-07-20T14:46:24;30.40;53.10
1175;DHT22;576;48.418;10.074;2023-07-20T14:48:52;30.40;53.00
1175;DHT22;576;48.418;10.074;2023-07-20T14:51:21;30.40;53.00
1175;DHT22;576;48.418;10.074;2023-07-20T14:53:49;30.50;53.00
1175;DHT22;576;48.418;10.074;2023-07-20T14:56:17;30.50;52.90
1175;DHT22;576;48.418;10.074;2023-07-20T14:58:46;30.50;52.90
1175;DHT22;576;48.418;10.074;2023-07-20T15:01:19;30.60;52.90
1175;DHT22;576;48.418;10.074;2023-07-20T15:03:47;30.60;53.00
1175;DHT22;576;48.418;10.074;2023-07-20T15:06:17;30.60;52.90
1175;DHT22;576;48.418;10.074;2023-07-20T15:08:45;30.60;52.80
1175;DHT22;576;48.418;10.074;2023-07-20T15:11:13;30.60;52.90
1175;DHT22;576;48.418;10.074;2023-07-20T15:13:41;30.60;52.90
1175;DHT22;576;48.418;10.074;2023-07-20T15:16:09;30.60;52.90
1175;DHT22;576;48.418;10.074;2023-07-20T15:18:39;30.60;52.80
1175;DHT22;576;48.418;10.074;2023-07-20T15:21:14;30.70;52.80
1175;DHT22;576;48.418;10.074;2023-07-20T15:23:43;30.70;52.80
1175;DHT22;576;48.418;10.074;2023-07-20T15:26:11;30.70;52.80
1175;DHT22;576;48.418;10.074;2023-07-20T15:28:40;30.70;52.90
1175;DHT22;576;48.418;10.074;2023-07-20T15:31:09;30.70;52.90
1175;DHT22;576;48.418;10.074;2023-07-20T15:33:38;30.70;52.90
1175;DHT22;576;48.418;10.074;2023-07-20T15:36:06;30.70;52.80
1175;DHT22;576;48.418;10.074;2023-07-20T15:38:35;30.70;53.00
1175;DHT22;576;48.418;10.074;2023-07-20T15:41:06;30.80;53.00
1175;DHT22;576;48.418;10.074;2023-07-20T15:43:34;30.90;52.90
1175;DHT22;576;48.418;10.074;2023-07-20T15:49:13;30.90;52.60
1175;DHT22;576;48.418;10.074;2023-07-20T15:51:42;30.90;52.60
1175;DHT22;576;48.418;10.074;2023-07-20T15:54:13;30.80;52.60
1175;DHT22;576;48.418;10.074;2023-07-20T15:56:43;30.80;52.70
1175;DHT22;576;48.418;10.074;2023-07-20T15:59:12;30.80;52.80
1175;DHT22;576;48.418;10.074;2023-07-20T16:01:41;30.70;52.80
1175;DHT22;576;48.418;10.074;2023-07-20T16:04:14;30.70;52.90
1175;DHT22;576;48.418;10.074;2023-07-20T16:06:42;30.60;52.70
1175;DHT22;576;48.418;10.074;2023-07-20T16:09:11;30.50;52.80
1175;DHT22;576;48.418;10.074;2023-07-20T16:11:41;30.40;52.80
1175;DHT22;576;48.418;10.074;2023-07-20T16:14:11;30.40;52.90
1175;DHT22;576;48.418;10.074;2023-07-20T16:16:40;30.40;52.30
1175;DHT22;576;48.418;10.074;2023-07-20T16:19:08;30.30;52.30
1175;DHT22;576;48.418;10.074;2023-07-20T16:21:37;30.30;52.40
1175;DHT22;576;48.418;10.074;2023-07-20T16:24:06;30.30;52.40